createdAt,value
2019-02-27T00:00:20.998Z,69.10
2019-02-27T00:02:50.694Z,75.77
2019-02-27T00:05:20.407Z,70.37
2019-02-27T00:07:53.936Z,73.97
2019-02-27T00:10:21.499Z,75.20
2019-02-27T00:12:51.918Z,75.13
2019-02-27T00:15:22.698Z,76.10
2019-02-27T00:17:52.180Z,75.70
2019-02-27T00:20:21.845Z,74.20
2019-02-27T00:22:51.641Z,70.03
2019-02-27T00:25:21.550Z,73.97
2019-02-27T00:27:52.684Z,69.37
2019-02-27T00:30:23.816Z,72.97
2019-02-27T00:32:53.502Z,75.23
2019-02-27T00:35:23.156Z,74.80
2019-02-27T00:37:54.625Z,72.77
2019-02-27T00:40:24.284Z,73.17
2019-02-27T00:42:55.084Z,69.87
2019-02-27T00:45:26.394Z,69.57
2019-02-27T00:47:56.184Z,69.73
2019-02-27T00:50:30.097Z,73.60
2019-02-27T00:53:00.225Z,66.03
2019-02-27T00:55:29.998Z,69.07
2019-02-27T00:58:00.604Z,71.53
2019-02-27T01:00:30.295Z,72.57
2019-02-27T01:02:59.971Z,71.33
2019-02-27T01:05:30.067Z,66.33
2019-02-27T01:07:59.769Z,68.73
2019-02-27T01:10:29.445Z,70.70
2019-02-27T01:12:59.131Z,74.97
2019-02-27T01:15:28.820Z,71.43
2019-02-27T01:17:58.483Z,72.33
2019-02-27T01:20:28.163Z,75.57
2019-02-27T01:22:57.858Z,67.00
2019-02-27T01:25:29.558Z,67.73
2019-02-27T01:28:01.611Z,67.50
2019-02-27T01:30:31.768Z,68.73
2019-02-27T01:33:04.879Z,68.07
2019-02-27T01:35:34.799Z,72.30
2019-02-27T01:38:05.297Z,68.93
2019-02-27T01:40:35.507Z,64.00
2019-02-27T01:43:06.272Z,66.23
2019-02-27T01:45:36.328Z,64.63
2019-02-27T01:48:08.911Z,63.83
2019-02-27T01:50:37.983Z,64.13
2019-02-27T01:53:11.960Z,69.13
2019-02-27T01:55:43.286Z,71.23
2019-02-27T01:58:12.959Z,70.60
2019-02-27T02:00:44.242Z,67.33
2019-02-27T02:03:14.358Z,66.33
2019-02-27T02:05:44.309Z,68.43
2019-02-27T02:08:14.659Z,67.70
2019-02-27T02:10:45.047Z,65.70
2019-02-27T02:13:19.068Z,66.87
2019-02-27T02:16:14.014Z,70.67
2019-02-27T02:19:21.386Z,68.80
2019-02-27T02:22:14.189Z,70.27
2019-02-27T02:25:00.336Z,76.00
2019-02-27T02:28:01.634Z,68.43
2019-02-27T02:30:47.613Z,64.73
2019-02-27T02:33:45.662Z,68.30
2019-02-27T02:36:40.554Z,63.00
2019-02-27T02:39:23.514Z,68.77
2019-02-27T02:42:00.033Z,69.07
2019-02-27T02:44:37.807Z,66.10
2019-02-27T02:47:21.523Z,59.60
2019-02-27T02:50:07.514Z,67.17
2019-02-27T02:53:00.825Z,64.67
2019-02-27T02:55:49.518Z,63.90
2019-02-27T02:58:29.033Z,64.43
2019-02-27T03:01:15.167Z,67.90
2019-02-27T03:03:53.367Z,69.87
2019-02-27T03:06:39.256Z,63.43
2019-02-27T03:09:31.824Z,61.23
2019-02-27T03:12:14.301Z,59.80
2019-02-27T03:14:54.550Z,68.73
2019-02-27T03:18:05.419Z,67.17
2019-02-27T03:20:51.822Z,65.20
2019-02-27T03:23:52.577Z,62.97
2019-02-27T03:26:33.822Z,63.53
2019-02-27T03:29:41.176Z,63.07
2019-02-27T03:32:26.922Z,62.80
2019-02-27T03:35:27.465Z,62.57
2019-02-27T03:38:07.648Z,61.40
2019-02-27T03:40:53.102Z,64.77
2019-02-27T03:43:50.346Z,58.63
2019-02-27T03:46:46.830Z,58.60
2019-02-27T03:49:40.666Z,62.47
2019-02-27T03:52:39.303Z,59.50
2019-02-27T03:55:32.843Z,63.00
2019-02-27T03:58:15.156Z,65.33
2019-02-27T04:01:05.823Z,64.23
2019-02-27T04:03:39.893Z,58.23
2019-02-27T04:06:37.995Z,61.63
2019-02-27T04:09:09.230Z,61.07
2019-02-27T04:11:42.613Z,60.10
2019-02-27T04:14:40.522Z,58.97
2019-02-27T04:17:06.913Z,59.77
2019-02-27T04:19:39.295Z,62.03
2019-02-27T04:22:07.810Z,60.90
2019-02-27T04:24:37.482Z,64.27
2019-02-27T04:27:07.147Z,58.70
2019-02-27T04:29:40.764Z,58.83
2019-02-27T04:32:09.569Z,58.13
2019-02-27T04:34:39.598Z,63.17
2019-02-27T04:37:09.275Z,58.50
2019-02-27T04:39:38.928Z,58.97
2019-02-27T04:42:08.584Z,61.37
2019-02-27T04:44:38.901Z,59.13
2019-02-27T04:47:09.421Z,58.63
2019-02-27T04:49:39.096Z,58.33
2019-02-27T04:52:08.796Z,58.47
2019-02-27T04:54:41.306Z,57.40
2019-02-27T04:57:09.762Z,66.60
2019-02-27T04:59:39.438Z,57.83
2019-02-27T05:02:09.102Z,56.63
2019-02-27T05:04:38.766Z,56.07
2019-02-27T05:07:08.440Z,60.20
2019-02-27T05:09:38.094Z,58.63
2019-02-27T05:12:08.011Z,58.33
2019-02-27T05:14:37.686Z,60.33
2019-02-27T05:17:07.343Z,56.20
2019-02-27T05:19:37.747Z,56.27
2019-02-27T05:22:07.679Z,55.53
2019-02-27T05:24:40.639Z,58.37
2019-02-27T05:27:08.732Z,60.40
2019-02-27T05:29:38.419Z,58.70
2019-02-27T05:32:08.080Z,63.43
2019-02-27T05:34:57.026Z,58.60
2019-02-27T05:37:28.785Z,59.27
2019-02-27T05:39:58.448Z,60.33
2019-02-27T05:42:28.119Z,61.80
2019-02-27T05:44:57.798Z,64.83
2019-02-27T05:47:27.474Z,64.10
2019-02-27T05:50:00.673Z,65.50
2019-02-27T05:52:29.809Z,62.97
2019-02-27T05:54:59.485Z,64.13
2019-02-27T05:57:29.165Z,61.83
2019-02-27T06:00:02.240Z,62.40
2019-02-27T06:02:33.633Z,59.97
2019-02-27T06:05:04.128Z,61.53
2019-02-27T06:07:33.792Z,63.07
2019-02-27T06:10:04.060Z,65.53
2019-02-27T06:12:33.900Z,58.67
2019-02-27T06:15:04.364Z,62.77
2019-02-27T06:17:43.187Z,61.23
2019-02-27T06:20:08.011Z,57.67
2019-02-27T06:22:38.479Z,58.20
2019-02-27T06:25:21.667Z,60.37
2019-02-27T06:27:46.549Z,60.83
2019-02-27T06:30:19.861Z,60.73
2019-02-27T06:32:49.595Z,56.77
2019-02-27T06:35:22.391Z,60.00
2019-02-27T06:37:52.266Z,59.97
2019-02-27T06:40:21.963Z,59.00
2019-02-27T06:42:53.860Z,64.47
2019-02-27T06:45:23.027Z,65.77
2019-02-27T06:47:52.714Z,60.37
2019-02-27T06:50:25.174Z,58.87
2019-02-27T06:52:53.917Z,60.50
2019-02-27T06:55:25.464Z,61.27
2019-02-27T06:57:55.206Z,62.43
2019-02-27T07:00:28.684Z,56.43
2019-02-27T07:02:59.838Z,60.10
2019-02-27T07:05:29.507Z,61.70
2019-02-27T07:07:59.179Z,60.10
2019-02-27T07:10:28.854Z,63.03
2019-02-27T07:12:58.517Z,60.63
2019-02-27T07:15:29.372Z,58.43
2019-02-27T07:17:59.065Z,59.70
2019-02-27T07:20:28.543Z,59.67
2019-02-27T07:22:58.318Z,59.27
2019-02-27T07:25:28.054Z,60.90
2019-02-27T07:27:57.718Z,64.53
2019-02-27T07:30:27.365Z,59.90
2019-02-27T07:32:57.041Z,60.87
2019-02-27T07:35:29.144Z,58.60
2019-02-27T07:37:58.148Z,64.50
2019-02-27T07:40:27.817Z,59.27
2019-02-27T07:42:57.480Z,63.07
2019-02-27T07:45:27.157Z,61.17
2019-02-27T07:47:57.179Z,57.40
2019-02-27T07:50:27.087Z,61.93
2019-02-27T07:52:58.091Z,64.13
2019-02-27T07:55:28.514Z,66.93
2019-02-27T07:57:59.244Z,65.13
2019-02-27T08:00:29.273Z,65.40
2019-02-27T08:02:58.917Z,62.90
2019-02-27T08:05:31.699Z,67.27
2019-02-27T08:08:01.522Z,68.77
2019-02-27T08:10:31.164Z,65.63
2019-02-27T08:13:03.822Z,63.03
2019-02-27T08:15:34.963Z,62.70
2019-02-27T08:18:04.712Z,63.43
2019-02-27T08:20:34.556Z,63.13
2019-02-27T08:23:04.251Z,60.10
2019-02-27T08:25:33.918Z,63.70
2019-02-27T08:28:03.601Z,63.97
2019-02-27T08:30:33.264Z,62.40
2019-02-27T08:33:08.218Z,62.10
2019-02-27T08:35:35.965Z,63.50
2019-02-27T08:38:07.350Z,60.63
2019-02-27T08:40:36.985Z,64.57
2019-02-27T08:43:06.767Z,66.80
2019-02-27T08:45:37.671Z,68.93
2019-02-27T08:48:07.350Z,68.20
2019-02-27T08:50:37.021Z,63.87
2019-02-27T08:53:07.016Z,66.17
2019-02-27T08:55:39.130Z,67.83
2019-02-27T08:58:08.064Z,69.83
2019-02-27T09:00:38.575Z,67.37
2019-02-27T09:03:08.939Z,68.47
2019-02-27T09:05:39.307Z,69.10
2019-02-27T09:08:10.863Z,67.50
2019-02-27T09:10:41.414Z,64.63
2019-02-27T09:13:11.067Z,68.00
2019-02-27T09:15:41.686Z,68.20
2019-02-27T09:18:14.672Z,70.83
2019-02-27T09:20:44.241Z,68.33
2019-02-27T09:23:13.919Z,67.30
2019-02-27T09:25:44.555Z,69.70
2019-02-27T09:28:14.214Z,70.90
2019-02-27T09:30:46.177Z,70.07
2019-02-27T09:33:17.063Z,71.93
2019-02-27T09:35:47.295Z,74.23
2019-02-27T09:38:17.097Z,71.77
2019-02-27T09:40:46.748Z,71.60
2019-02-27T09:43:16.403Z,69.47
2019-02-27T09:45:48.131Z,73.03
2019-02-27T09:48:20.134Z,71.67
2019-02-27T09:50:49.805Z,78.03
2019-02-27T09:53:19.567Z,75.50
2019-02-27T09:55:53.301Z,74.17
2019-02-27T09:58:22.747Z,73.57
2019-02-27T10:01:00.713Z,71.77
2019-02-27T10:03:28.466Z,72.93
2019-02-27T10:05:58.119Z,72.97
2019-02-27T10:08:27.836Z,78.33
2019-02-27T10:10:57.509Z,73.97
2019-02-27T10:13:27.376Z,75.37
2019-02-27T10:16:00.269Z,75.80
2019-02-27T10:18:28.451Z,79.27
2019-02-27T10:20:58.124Z,77.57
2019-02-27T10:23:30.405Z,78.50
2019-02-27T10:25:59.237Z,78.40
2019-02-27T10:28:32.170Z,78.47
2019-02-27T10:31:01.979Z,77.57
2019-02-27T10:33:33.935Z,75.10
2019-02-27T10:36:05.156Z,78.57
2019-02-27T10:38:40.293Z,78.87
2019-02-27T10:41:06.241Z,78.93
2019-02-27T10:43:35.907Z,81.07
2019-02-27T10:46:05.602Z,82.07
2019-02-27T10:48:36.820Z,79.63
2019-02-27T10:51:09.524Z,79.90
2019-02-27T10:53:38.045Z,81.33
2019-02-27T10:56:09.185Z,78.03
2019-02-27T10:58:39.252Z,83.37
2019-02-27T11:01:10.962Z,82.30
2019-02-27T11:03:42.528Z,82.63
2019-02-27T11:06:12.277Z,80.27
2019-02-27T11:08:41.987Z,79.27
2019-02-27T11:11:13.132Z,79.77
2019-02-27T11:13:43.103Z,82.80
2019-02-27T11:16:15.458Z,83.67
2019-02-27T11:18:44.738Z,79.90
2019-02-27T11:21:14.535Z,80.93
2019-02-27T11:23:44.239Z,85.13
2019-02-27T11:26:16.686Z,83.67
2019-02-27T11:28:47.767Z,79.73
2019-02-27T11:31:17.757Z,81.10
2019-02-27T11:33:50.159Z,80.37
2019-02-27T11:36:21.304Z,82.30
2019-02-27T11:38:50.991Z,87.37
2019-02-27T11:41:20.650Z,84.63
2019-02-27T11:43:50.318Z,82.63
2019-02-27T11:46:20.016Z,81.00
2019-02-27T11:48:51.144Z,83.30
2019-02-27T11:51:20.885Z,84.67
2019-02-27T11:53:50.795Z,80.93
2019-02-27T11:56:20.911Z,83.37
2019-02-27T11:58:50.602Z,84.83
2019-02-27T12:01:22.024Z,84.43
2019-02-27T12:03:52.593Z,79.73
2019-02-27T12:06:22.261Z,79.97
2019-02-27T12:08:52.821Z,81.93
2019-02-27T12:11:23.380Z,78.23
2019-02-27T12:13:54.796Z,76.07
2019-02-27T12:16:24.453Z,77.90
2019-02-27T12:18:54.817Z,76.97
2019-02-27T12:21:25.432Z,76.70
2019-02-27T12:23:55.966Z,78.37
2019-02-27T12:26:25.637Z,75.70
2019-02-27T12:28:55.313Z,79.67
2019-02-27T12:31:25.016Z,79.03
2019-02-27T12:34:03.277Z,78.53
2019-02-27T12:36:32.088Z,78.83
2019-02-27T12:39:01.765Z,77.90
2019-02-27T12:41:32.487Z,75.93
2019-02-27T12:44:02.939Z,80.27
2019-02-27T12:46:34.173Z,79.50
2019-02-27T12:49:04.041Z,78.07
2019-02-27T12:51:35.246Z,77.77
2019-02-27T12:54:05.181Z,75.17
2019-02-27T12:56:34.881Z,80.60
2019-02-27T12:59:06.028Z,81.90
2019-02-27T13:01:37.118Z,76.87
2019-02-27T13:04:06.815Z,76.90
2019-02-27T13:06:40.415Z,77.80
2019-02-27T13:09:10.169Z,75.37
2019-02-27T13:11:41.946Z,84.67
2019-02-27T13:14:11.275Z,78.80
2019-02-27T13:16:40.948Z,81.93
2019-02-27T13:19:12.203Z,82.63
2019-02-27T13:21:41.883Z,77.97
2019-02-27T13:24:15.094Z,81.10
2019-02-27T13:26:42.991Z,80.50
2019-02-27T13:29:12.656Z,77.97
2019-02-27T13:31:42.350Z,80.60
2019-02-27T13:34:13.896Z,79.07
2019-02-27T13:36:43.459Z,79.63
2019-02-27T13:39:25.372Z,82.33
2019-02-27T13:41:54.360Z,78.10
2019-02-27T13:44:24.056Z,82.17
2019-02-27T13:46:56.994Z,81.60
2019-02-27T13:49:26.598Z,80.30
2019-02-27T13:51:57.767Z,81.73
2019-02-27T13:54:28.910Z,81.77
2019-02-27T13:56:58.585Z,82.23
2019-02-27T13:59:28.270Z,83.73
2019-02-27T14:02:00.702Z,89.73
2019-02-27T14:04:29.329Z,80.90
2019-02-27T14:06:59.339Z,84.23
2019-02-27T14:09:29.014Z,81.43
2019-02-27T14:11:59.393Z,81.87
2019-02-27T14:14:29.434Z,79.07
2019-02-27T14:16:59.288Z,85.37
2019-02-27T14:19:30.743Z,83.77
2019-02-27T14:22:00.440Z,84.10
2019-02-27T14:24:30.098Z,85.83
2019-02-27T14:26:59.781Z,86.93
2019-02-27T14:29:32.418Z,84.93
2019-02-27T14:32:02.083Z,86.33
2019-02-27T14:34:31.759Z,85.00
2019-02-27T14:37:01.492Z,93.23
2019-02-27T14:39:31.158Z,85.40
2019-02-27T14:42:00.830Z,80.33
2019-02-27T14:44:31.514Z,85.37
2019-02-27T14:47:01.985Z,86.67
2019-02-27T14:49:31.729Z,83.00
2019-02-27T14:52:01.425Z,85.13
2019-02-27T14:54:31.106Z,83.87
2019-02-27T14:57:02.459Z,83.83
2019-02-27T14:59:34.171Z,84.80
2019-02-27T15:02:04.652Z,89.07
2019-02-27T15:04:34.336Z,80.53
2019-02-27T15:07:04.019Z,82.67
2019-02-27T15:09:36.116Z,82.40
2019-02-27T15:12:24.366Z,81.53
2019-02-27T15:14:54.031Z,79.30
2019-02-27T15:17:23.704Z,79.97
2019-02-27T15:19:53.397Z,87.00
2019-02-27T15:22:23.061Z,83.23
2019-02-27T15:24:52.948Z,86.57
2019-02-27T15:27:25.024Z,87.00
2019-02-27T15:29:54.096Z,84.97
2019-02-27T15:32:27.073Z,89.20
2019-02-27T15:34:55.300Z,90.73
2019-02-27T15:37:24.962Z,89.27
2019-02-27T15:39:54.980Z,89.67
2019-02-27T15:42:25.602Z,91.57
2019-02-27T15:44:55.274Z,94.33
2019-02-27T15:47:30.015Z,95.20
2019-02-27T15:49:56.368Z,90.50
2019-02-27T15:52:26.038Z,91.43
2019-02-27T15:54:59.271Z,95.53
2019-02-27T15:57:28.573Z,95.77
2019-02-27T15:59:58.248Z,94.87
2019-02-27T16:02:29.685Z,90.53
2019-02-27T16:04:59.384Z,96.73
2019-02-27T16:07:29.058Z,91.33
2019-02-27T16:10:00.156Z,92.53
2019-02-27T16:12:31.411Z,95.20
2019-02-27T16:15:01.097Z,95.73
2019-02-27T16:17:32.320Z,90.13
2019-02-27T16:20:02.030Z,92.97
2019-02-27T16:22:31.700Z,91.50
2019-02-27T16:25:01.367Z,93.27
2019-02-27T16:27:32.204Z,90.60
2019-02-27T16:30:03.576Z,90.10
2019-02-27T16:32:33.763Z,90.77
2019-02-27T16:35:07.855Z,89.40
2019-02-27T16:37:37.537Z,90.20
2019-02-27T16:40:18.061Z,93.97
2019-02-27T16:42:48.469Z,92.40
2019-02-27T16:45:37.623Z,90.77
2019-02-27T16:48:07.347Z,92.67
2019-02-27T16:50:39.472Z,92.83
2019-02-27T16:53:09.430Z,93.00
2019-02-27T16:55:39.630Z,93.23
2019-02-27T16:58:10.259Z,93.57
2019-02-27T17:00:40.243Z,94.23
2019-02-27T17:03:13.089Z,91.43
2019-02-27T17:05:43.079Z,91.70
2019-02-27T17:08:15.082Z,107.77
2019-02-27T17:10:44.760Z,98.40
2019-02-27T17:13:16.460Z,102.47
2019-02-27T17:15:46.163Z,101.07
2019-02-27T17:18:16.238Z,95.37
2019-02-27T17:20:47.274Z,92.40
2019-02-27T17:23:17.250Z,102.47
2019-02-27T17:25:47.058Z,93.90
2019-02-27T17:28:18.365Z,92.53
2019-02-27T17:30:48.125Z,85.70
2019-02-27T17:33:19.272Z,94.00
2019-02-27T17:35:48.928Z,93.53
2019-02-27T17:38:18.635Z,92.50
2019-02-27T17:40:48.385Z,105.67
2019-02-27T17:43:18.060Z,109.47
2019-02-27T17:45:47.764Z,99.20
2019-02-27T17:48:17.443Z,98.17
2019-02-27T17:50:47.106Z,90.70
2019-02-27T17:53:16.799Z,94.17
2019-02-27T17:55:46.589Z,93.70
2019-02-27T17:58:17.336Z,89.67
2019-02-27T18:00:51.072Z,88.97
2019-02-27T18:03:22.100Z,89.03
2019-02-27T18:05:51.803Z,85.97
2019-02-27T18:08:21.539Z,86.33
2019-02-27T18:10:51.210Z,80.13
2019-02-27T18:13:20.893Z,82.27
2019-02-27T18:15:53.241Z,81.93
2019-02-27T18:18:21.993Z,82.70
2019-02-27T18:20:51.747Z,84.57
2019-02-27T18:23:21.949Z,85.13
2019-02-27T18:25:52.933Z,81.30
2019-02-27T18:28:23.243Z,83.30
2019-02-27T18:30:53.758Z,85.20
2019-02-27T18:33:24.963Z,79.77
2019-02-27T18:35:56.120Z,78.53
2019-02-27T18:38:27.821Z,81.03
2019-02-27T18:40:58.125Z,87.20
2019-02-27T18:43:30.910Z,88.40
2019-02-27T18:46:00.736Z,89.77
2019-02-27T18:48:30.409Z,89.30
2019-02-27T18:51:01.091Z,86.63
2019-02-27T18:53:32.225Z,84.63
2019-02-27T18:56:02.765Z,92.47
2019-02-27T18:58:32.672Z,83.30
2019-02-27T19:01:02.747Z,82.10
2019-02-27T19:03:34.757Z,80.97
2019-02-27T19:06:04.420Z,80.30
2019-02-27T19:08:35.188Z,79.90
2019-02-27T19:11:04.976Z,87.07
2019-02-27T19:13:34.675Z,85.67
2019-02-27T19:16:04.394Z,84.73
2019-02-27T19:18:34.089Z,80.33
2019-02-27T19:21:03.849Z,81.60
2019-02-27T19:23:33.564Z,85.00
2019-02-27T19:26:06.285Z,85.00
2019-02-27T19:28:42.752Z,84.20
2019-02-27T19:31:16.770Z,83.03
2019-02-27T19:33:45.577Z,79.10
2019-02-27T19:36:19.383Z,78.10
2019-02-27T19:38:51.102Z,80.43
2019-02-27T19:41:20.963Z,82.90
2019-02-27T19:43:55.005Z,86.60
2019-02-27T19:46:22.281Z,83.33
2019-02-27T19:48:53.274Z,87.20
2019-02-27T19:51:23.266Z,80.50
2019-02-27T19:53:55.317Z,81.97
2019-02-27T19:56:25.960Z,75.57
2019-02-27T19:58:58.316Z,80.37
2019-02-27T20:01:29.013Z,75.37
2019-02-27T20:03:58.671Z,78.10
2019-02-27T20:06:28.388Z,79.63
2019-02-27T20:08:58.081Z,77.07
2019-02-27T20:11:28.132Z,78.53
2019-02-27T20:14:02.020Z,78.83
2019-02-27T20:16:30.692Z,75.50
2019-02-27T20:19:00.364Z,82.67
2019-02-27T20:21:30.481Z,80.27
2019-02-27T20:24:01.425Z,88.60
2019-02-27T20:26:31.538Z,92.97
2019-02-27T20:29:04.138Z,96.10
2019-02-27T20:31:32.713Z,91.00
2019-02-27T20:34:02.473Z,90.20
2019-02-27T20:36:34.725Z,84.03
2019-02-27T20:39:05.273Z,81.77
2019-02-27T20:41:39.717Z,84.63
2019-02-27T20:44:06.639Z,83.00
2019-02-27T20:46:36.321Z,78.73
2019-02-27T20:49:06.397Z,78.93
2019-02-27T20:51:39.984Z,89.87
2019-02-27T20:54:10.972Z,81.27
2019-02-27T20:56:40.667Z,85.53
2019-02-27T20:59:11.991Z,87.87
2019-02-27T21:01:47.220Z,79.83
2019-02-27T21:04:16.082Z,83.97
2019-02-27T21:06:47.878Z,81.33
2019-02-27T21:09:17.202Z,84.23
2019-02-27T21:11:46.874Z,86.87
2019-02-27T21:14:16.561Z,85.37
2019-02-27T21:16:47.109Z,82.93
2019-02-27T21:19:16.766Z,83.00
2019-02-27T21:21:46.525Z,86.87
2019-02-27T21:24:16.445Z,93.37
2019-02-27T21:26:46.247Z,85.50
2019-02-27T21:29:19.535Z,89.43
2019-02-27T21:31:50.681Z,93.33
2019-02-27T21:34:20.328Z,89.37
2019-02-27T21:36:51.812Z,90.60
2019-02-27T21:39:22.576Z,92.23
2019-02-27T21:41:54.433Z,88.70
2019-02-27T21:44:25.710Z,89.53
2019-02-27T21:46:55.638Z,89.83
2019-02-27T21:49:25.322Z,91.33
2019-02-27T21:51:54.997Z,92.10
2019-02-27T21:54:25.011Z,87.80
2019-02-27T21:56:55.209Z,90.20
2019-02-27T21:59:24.931Z,85.83
2019-02-27T22:01:56.283Z,95.03
2019-02-27T22:04:27.634Z,87.63
2019-02-27T22:06:58.464Z,89.30
2019-02-27T22:09:28.913Z,88.37
2019-02-27T22:12:01.140Z,82.70
2019-02-27T22:14:30.063Z,84.17
2019-02-27T22:17:01.589Z,96.43
2019-02-27T22:19:32.647Z,95.33
2019-02-27T22:22:05.320Z,94.27
2019-02-27T22:24:35.726Z,89.43
2019-02-27T22:27:05.523Z,87.37
2019-02-27T22:29:35.240Z,82.23
2019-02-27T22:32:04.922Z,81.23
2019-02-27T22:34:34.570Z,85.00
2019-02-27T22:37:04.342Z,81.30
2019-02-27T22:39:34.088Z,81.57
2019-02-27T22:42:03.804Z,78.70
2019-02-27T22:44:33.506Z,76.97
2019-02-27T22:47:03.176Z,84.50
2019-02-27T22:49:35.148Z,81.47
2019-02-27T22:52:04.905Z,79.13
2019-02-27T22:54:36.848Z,82.53
2019-02-27T22:57:07.923Z,80.87
2019-02-27T22:59:38.839Z,80.33
2019-02-27T23:02:08.526Z,83.23
2019-02-27T23:04:38.983Z,80.93
2019-02-27T23:07:08.967Z,82.73
2019-02-27T23:09:38.827Z,77.40
2019-02-27T23:12:09.301Z,85.73
2019-02-27T23:14:40.486Z,81.87
2019-02-27T23:17:10.161Z,83.70
2019-02-27T23:19:39.926Z,77.47
2019-02-27T23:22:10.631Z,81.03
2019-02-27T23:24:43.709Z,78.20
2019-02-27T23:27:21.241Z,81.00
2019-02-27T23:29:51.096Z,84.10
2019-02-27T23:32:20.767Z,81.87
2019-02-27T23:34:51.980Z,76.07
2019-02-27T23:37:29.252Z,73.70
2019-02-27T23:39:56.272Z,79.37
2019-02-27T23:42:28.659Z,73.37
2019-02-27T23:44:58.369Z,77.23
2019-02-27T23:47:28.691Z,82.13
2019-02-27T23:49:59.057Z,80.17
2019-02-27T23:52:28.740Z,82.93
2019-02-27T23:55:00.179Z,82.07
2019-02-27T23:57:30.034Z,83.87
2019-02-27T23:59:59.795Z,87.63
